Time;durP1;ratioP1;P1;durP2;ratioP2;P2;SDS_P1;SDS_P2;PMS_P1;PMS_P2;Temp;Humidity;BMP_temperature;BMP_pressure;BME280_temperature;BME280_humidity;BME280_pressure;Samples;Min_cycle;Max_cycle;Signal;HPM_P1;HPM_P2
2021/03/28 00:01:11;;;;;;;302.20;93.25;;;;;;;0.56;80.11;100244.28;1795781;79;21127;-70
2021/03/28 00:03:59;;;;;;;325.43;112.68;;;;;;;0.55;79.97;100246.16;1857482;76;27901;-70
2021/03/28 00:06:51;;;;;;;256.65;86.08;;;;;;;0.54;79.81;100251.27;1808709;79;21483;-70
2021/03/28 00:09:27;;;;;;;239.68;80.42;;;;;;;0.53;79.74;100248.27;1808551;79;20996;-71
2021/03/28 00:12:24;;;;;;;215.45;72.65;;;;;;;0.50;80.01;100253.31;1808622;79;21510;-71
2021/03/28 00:15:13;;;;;;;221.22;74.40;;;;;;;0.47;80.00;100248.38;1734784;82;21190;-71
2021/03/28 00:17:50;;;;;;;220.15;73.37;;;;;;;0.43;79.98;100249.38;1809736;78;20972;-72
2021/03/28 00:20:23;;;;;;;235.40;73.52;;;;;;;0.37;79.88;100252.17;1841699;78;20905;-72
2021/03/28 00:23:15;;;;;;;202.32;71.22;;;;;;;0.33;80.01;100254.52;1841578;78;20983;-71
2021/03/28 00:26:07;;;;;;;210.97;73.85;;;;;;;0.31;80.17;100249.34;1841683;77;21479;-71
2021/03/28 00:28:42;;;;;;;208.78;70.10;;;;;;;0.29;80.46;100254.68;1787905;79;20935;-71
2021/03/28 00:31:29;;;;;;;199.80;70.85;;;;;;;0.27;80.56;100258.96;1782164;80;21550;-71
2021/03/28 00:34:26;;;;;;;217.72;73.97;;;;;;;0.25;80.65;100258.38;1782241;80;20937;-71
2021/03/28 00:37:11;;;;;;;209.40;68.62;;;;;;;0.22;80.73;100256.66;1782121;80;21376;-73
2021/03/28 00:39:48;;;;;;;174.38;64.20;;;;;;;0.19;80.73;100251.72;1781459;80;21020;-72
2021/03/28 00:42:40;;;;;;;189.30;65.55;;;;;;;0.16;80.99;100254.88;1751248;82;20945;-71
2021/03/28 00:45:28;;;;;;;191.65;68.37;;;;;;;0.12;81.13;100255.04;1751167;82;21107;-71
2021/03/28 00:48:17;;;;;;;201.42;63.70;;;;;;;0.07;81.09;100258.43;1751330;82;21031;-71
2021/03/28 00:50:55;;;;;;;183.35;61.30;;;;;;;0.03;81.16;100268.04;1693087;83;21476;-71
2021/03/28 00:53:35;;;;;;;179.75;62.43;;;;;;;-0.01;81.30;100262.30;1706957;83;21519;-71
2021/03/28 00:56:14;;;;;;;169.10;61.68;;;;;;;-0.03;81.38;100264.41;1720993;83;21158;-72
2021/03/28 00:59:02;;;;;;;165.82;59.55;;;;;;;-0.06;81.35;100256.77;1721345;83;21016;-71
2021/03/28 01:02:16;;;;;;;181.02;62.10;;;;;;;-0.08;81.47;100256.70;1755800;80;21180;-72
2021/03/28 01:05:02;;;;;;;162.95;58.25;;;;;;;-0.12;81.61;100259.03;1730085;81;21261;-72
2021/03/28 01:07:42;;;;;;;151.75;57.15;;;;;;;-0.13;81.62;100256.56;1739454;81;21005;-73
2021/03/28 01:10:53;;;;;;;141.43;56.45;;;;;;;-0.14;81.83;100264.36;1727401;81;21006;-73
2021/03/28 01:14:07;;;;;;;142.47;54.38;;;;;;;-0.13;82.17;100261.95;1721146;83;20999;-73
2021/03/28 01:17:21;;;;;;;165.47;61.28;;;;;;;-0.18;82.23;100257.77;1720822;83;20937;-72
2021/03/28 01:20:16;;;;;;;157.05;59.48;;;;;;;-0.19;82.27;100262.34;1729025;83;22671;-71
2021/03/28 01:23:05;;;;;;;161.25;61.20;;;;;;;-0.23;82.22;100260.33;1724752;82;21095;-71
2021/03/28 01:25:50;;;;;;;158.27;59.60;;;;;;;-0.23;82.30;100254.41;1728861;83;20982;-71
2021/03/28 01:28:47;;;;;;;157.20;59.42;;;;;;;-0.25;82.06;100259.20;1728925;83;20938;-70
2021/03/28 01:31:32;;;;;;;162.77;61.00;;;;;;;-0.26;82.07;100254.86;1728793;83;20939;-70
2021/03/28 01:34:19;;;;;;;171.47;61.63;;;;;;;-0.28;82.02;100252.91;1728850;81;22851;-70
2021/03/28 01:36:57;;;;;;;160.35;58.50;;;;;;;-0.31;82.12;100246.63;1724791;82;20919;-72
2021/03/28 01:39:31;;;;;;;155.35;59.93;;;;;;;-0.31;82.17;100247.15;1717541;83;21067;-71
2021/03/28 01:42:04;;;;;;;171.18;63.42;;;;;;;-0.33;82.32;100250.08;1726682;81;21578;-72
2021/03/28 01:44:58;;;;;;;197.22;68.25;;;;;;;-0.34;82.35;100254.65;1703258;83;21155;-71
2021/03/28 01:47:49;;;;;;;231.45;73.70;;;;;;;-0.37;82.26;100247.53;1684501;80;21157;-71
2021/03/28 01:50:28;;;;;;;224.90;70.05;;;;;;;-0.39;82.27;100250.45;1731297;81;20965;-70
2021/03/28 01:53:19;;;;;;;261.10;79.05;;;;;;;-0.41;82.39;100255.78;1747703;80;20949;-70
2021/03/28 01:56:17;;;;;;;258.65;76.65;;;;;;;-0.44;82.38;100256.23;1750688;82;21253;-70
2021/03/28 01:59:10;;;;;;;275.98;80.77;;;;;;;-0.48;82.35;100257.73;1744246;80;20925;-70
2021/03/28 02:01:58;;;;;;;277.82;80.00;;;;;;;-0.50;82.51;100269.27;1723777;82;21658;-70
2021/03/28 02:04:42;;;;;;;268.07;77.62;;;;;;;-0.53;82.64;100264.33;1741325;82;20953;-70
2021/03/28 02:07:50;;;;;;;256.23;75.40;;;;;;;-0.55;82.72;100261.03;1750839;81;21001;-69
2021/03/28 02:10:46;;;;;;;219.15;68.42;;;;;;;-0.58;82.71;100262.34;1750643;82;21068;-69
2021/03/28 02:13:31;;;;;;;215.87;68.83;;;;;;;-0.61;82.86;100264.66;1749210;81;21508;-71
2021/03/28 02:16:29;;;;;;;207.52;65.80;;;;;;;-0.64;82.98;100259.19;1720851;83;21217;-71
2021/03/28 02:19:19;;;;;;;171.22;59.35;;;;;;;-0.67;83.01;100252.91;1720778;82;20965;-69
2021/03/28 02:22:11;;;;;;;169.70;57.35;;;;;;;-0.68;83.10;100255.30;1720428;82;20945;-69
2021/03/28 02:25:07;;;;;;;181.18;59.83;;;;;;;-0.71;83.08;100252.53;1737421;82;21012;-69
2021/03/28 02:27:50;;;;;;;178.20;60.78;;;;;;;-0.73;83.14;100250.58;1750691;82;20901;-69
2021/03/28 02:30:45;;;;;;;160.00;58.35;;;;;;;-0.75;83.33;100254.55;1750703;82;22747;-70
2021/03/28 02:34:04;;;;;;;185.90;62.67;;;;;;;-0.76;83.53;100251.55;1747307;82;21009;-70
2021/03/28 02:36:41;;;;;;;169.62;59.13;;;;;;;-0.78;83.56;100255.82;1715090;82;21200;-70
2021/03/28 02:39:23;;;;;;;158.97;56.98;;;;;;;-0.81;83.63;100254.92;1749807;82;21413;-70
2021/03/28 02:42:10;;;;;;;146.65;54.65;;;;;;;-0.82;83.69;100250.58;1750583;82;21000;-70
2021/03/28 02:45:05;;;;;;;162.90;57.20;;;;;;;-0.84;83.75;100248.62;1750687;81;21339;-70
2021/03/28 02:48:14;;;;;;;142.32;54.03;;;;;;;-0.83;83.77;100256.19;1750556;81;20954;-69
2021/03/28 02:51:06;;;;;;;135.63;51.50;;;;;;;-0.87;83.67;100253.12;1750648;82;20997;-70
2021/03/28 02:54:19;;;;;;;155.78;52.88;;;;;;;-0.89;83.73;100248.47;1741815;80;21483;-70
2021/03/28 02:57:16;;;;;;;141.22;53.28;;;;;;;-0.91;83.81;100243.00;1722494;81;21480;-70
2021/03/28 02:59:58;;;;;;;128.97;50.05;;;;;;;-0.95;83.79;100243.98;1720781;83;22315;-70
2021/03/28 03:03:06;;;;;;;123.67;47.78;;;;;;;-0.96;83.98;100242.33;1709913;82;21124;-70
2021/03/28 03:05:42;;;;;;;136.10;51.40;;;;;;;-0.96;84.01;100242.85;1687335;83;21075;-70
2021/03/28 03:08:28;;;;;;;127.92;51.25;;;;;;;-0.97;83.94;100246.59;1727902;82;20946;-70
2021/03/28 03:11:24;;;;;;;134.47;51.95;;;;;;;-1.00;83.93;100244.64;1750712;82;20925;-70
2021/03/28 03:14:48;;;;;;;142.72;53.85;;;;;;;-1.02;83.99;100248.09;1750683;82;21206;-70
2021/03/28 03:17:56;;;;;;;124.30;47.75;;;;;;;-1.02;83.98;100249.95;1750701;80;20949;-71
2021/03/28 03:20:54;;;;;;;126.25;48.00;;;;;;;-1.04;84.02;100250.70;1739899;81;21039;-69
2021/03/28 03:23:59;;;;;;;128.38;47.08;;;;;;;-1.06;84.13;100242.84;1761487;81;21622;-69
2021/03/28 03:30:01;;;;;;;125.75;48.48;;;;;;;-1.03;84.34;100248.30;1873419;75;22725;-70
2021/03/28 03:33:14;;;;;;;129.60;50.12;;;;;;;-1.08;84.32;100252.19;1840513;78;20920;-70
2021/03/28 03:36:14;;;;;;;121.80;49.53;;;;;;;-1.10;84.19;100247.55;1841382;77;21360;-70
2021/03/28 03:38:52;;;;;;;140.68;53.00;;;;;;;-1.14;84.26;100257.95;1841524;78;21495;-71
2021/03/28 03:41:32;;;;;;;128.75;48.78;;;;;;;-1.16;84.36;100251.16;1841612;77;20932;-71
2021/03/28 03:44:21;;;;;;;117.75;45.98;;;;;;;-1.18;84.44;100254.08;1841583;78;21023;-71
2021/03/28 03:47:10;;;;;;;116.45;47.30;;;;;;;-1.18;84.65;100256.77;1812303;78;21459;-70
2021/03/28 03:50:13;;;;;;;116.10;44.50;;;;;;;-1.16;85.04;100256.55;1821912;78;21352;-71
2021/03/28 03:53:16;;;;;;;141.18;49.50;;;;;;;-1.18;85.06;100259.47;1808564;79;21058;-70
2021/03/28 03:56:14;;;;;;;130.25;47.65;;;;;;;-1.18;85.18;100263.51;1737323;82;21647;-71
2021/03/28 03:59:10;;;;;;;115.70;44.77;;;;;;;-1.17;85.18;100261.64;1808597;79;21003;-71
2021/03/28 04:02:00;;;;;;;105.52;41.18;;;;;;;-1.18;85.35;100252.73;1807841;79;20933;-73
2021/03/28 04:04:51;;;;;;;114.20;44.27;;;;;;;-1.18;85.46;100255.42;1808280;79;21487;-72
2021/03/28 04:08:09;;;;;;;103.07;41.98;;;;;;;-1.17;85.55;100249.52;1808366;79;21511;-72
2021/03/28 04:11:06;;;;;;;105.10;42.78;;;;;;;-1.17;85.62;100248.16;1808415;79;21452;-71
2021/03/28 04:13:49;;;;;;;109.17;41.37;;;;;;;-1.14;85.73;100253.91;1808312;79;21561;-71
2021/03/28 04:16:38;;;;;;;105.78;42.73;;;;;;;-1.08;86.18;100253.02;1808293;78;20979;-71
2021/03/28 04:19:29;;;;;;;103.45;41.37;;;;;;;-0.99;86.39;100256.25;1766435;79;21389;-71
2021/03/28 04:22:31;;;;;;;99.45;40.30;;;;;;;-0.93;86.16;100264.80;1804431;79;21070;-70
2021/03/28 04:25:27;;;;;;;117.37;47.50;;;;;;;-0.90;86.00;100266.22;1808283;79;20940;-71
2021/03/28 04:28:33;;;;;;;99.30;43.20;;;;;;;-0.88;85.91;100268.99;1809043;79;21248;-72
2021/03/28 04:31:34;;;;;;;97.42;37.83;;;;;;;-0.81;86.05;100273.79;1814104;79;20877;-71
2021/03/28 04:34:26;;;;;;;98.07;40.67;;;;;;;-0.76;85.83;100276.64;1738774;79;21414;-71
2021/03/28 04:37:18;;;;;;;;;;;;;;;-0.72;85.80;100273.80;1816743;79;20987;-71
2021/03/28 04:40:33;;;;;;;111.10;41.60;;;;;;;-0.66;85.97;100276.12;1813747;79;20153;-71
2021/03/28 04:43:39;;;;;;;104.27;42.43;;;;;;;-0.59;86.04;100277.39;1813504;78;21490;-71
2021/03/28 04:46:31;;;;;;;109.12;40.80;;;;;;;-0.54;86.07;100281.03;1813460;79;20999;-72
2021/03/28 04:49:07;;;;;;;103.85;42.53;;;;;;;-0.47;86.20;100275.56;1813446;77;22359;-71
2021/03/28 04:51:53;;;;;;;109.07;43.52;;;;;;;-0.38;86.40;100284.48;1813399;79;21565;-71
2021/03/28 04:55:16;;;;;;;105.72;45.98;;;;;;;-0.26;86.53;100285.89;1813579;79;21397;-71
2021/03/28 04:58:34;;;;;;;107.45;45.25;;;;;;;-0.13;86.63;100285.72;1813233;79;21007;-72
2021/03/28 05:01:40;;;;;;;105.70;45.17;;;;;;;0.06;86.56;100289.70;1775281;79;21059;-72
2021/03/28 05:04:36;;;;;;;103.85;45.00;;;;;;;0.21;86.58;100282.84;1812996;78;21802;-71
2021/03/28 05:07:43;;;;;;;111.25;46.55;;;;;;;0.40;86.70;100276.84;1813325;79;20980;-71
2021/03/28 05:11:05;;;;;;;139.88;52.50;;;;;;;0.58;86.66;100279.44;1813239;79;21146;-71
2021/03/28 05:14:06;;;;;;;116.80;51.55;;;;;;;0.82;86.61;100274.06;1813259;78;21756;-71
2021/03/28 05:17:23;;;;;;;110.63;47.85;;;;;;;1.09;86.54;100272.55;1812271;79;21126;-72
2021/03/28 05:20:14;;;;;;;117.93;49.77;;;;;;;1.38;86.10;100276.14;1799300;78;20922;-71
2021/03/28 05:23:09;;;;;;;117.47;49.95;;;;;;;1.70;85.25;100278.43;1797961;79;20926;-72
2021/03/28 05:26:11;;;;;;;119.33;52.08;;;;;;;1.95;84.58;100275.67;1797427;79;20994;-71
2021/03/28 05:28:59;;;;;;;125.58;54.45;;;;;;;2.21;83.93;100276.97;1798134;79;21037;-71
2021/03/28 05:31:50;;;;;;;126.72;53.80;;;;;;;2.44;83.16;100270.58;1798223;79;21023;-71
2021/03/28 05:34:39;;;;;;;128.93;54.75;;;;;;;2.67;82.67;100270.15;1787535;79;21211;-73
2021/03/28 05:37:34;;;;;;;126.33;54.08;;;;;;;2.90;82.12;100269.42;1798289;79;21583;-71
2021/03/28 05:40:36;;;;;;;128.82;55.03;;;;;;;3.16;81.45;100263.02;1798209;79;21073;-71
2021/03/28 05:43:26;;;;;;;115.82;50.75;;;;;;;3.46;80.27;100272.95;1798579;78;21747;-71
2021/03/28 05:46:27;;;;;;;124.00;51.35;;;;;;;3.77;77.90;100265.98;1798177;79;21063;-72
2021/03/28 05:49:02;;;;;;;110.37;46.95;;;;;;;4.05;76.44;100270.35;1797619;78;21146;-72
2021/03/28 05:51:50;;;;;;;122.42;51.20;;;;;;;4.36;75.06;100266.59;1797504;79;21059;-72
2021/03/28 05:54:57;;;;;;;113.68;50.73;;;;;;;4.60;74.29;100266.55;1796604;79;21466;-72
2021/03/28 05:57:57;;;;;;;110.92;52.67;;;;;;;4.82;73.10;100269.97;1794204;79;21630;-72
2021/03/28 06:01:16;;;;;;;111.32;50.23;;;;;;;5.03;72.95;100270.13;1791200;79;21146;-72
2021/03/28 06:03:59;;;;;;;112.35;50.35;;;;;;;5.23;71.47;100268.33;1791153;79;21765;-74
2021/03/28 06:06:45;;;;;;;108.35;51.45;;;;;;;5.41;70.65;100271.16;1808037;79;21017;-74
2021/03/28 06:10:08;;;;;;;118.72;56.08;;;;;;;5.54;69.64;100264.42;1814306;79;21159;-74
2021/03/28 06:13:14;;;;;;;99.77;43.25;;;;;;;5.69;69.61;100265.04;1814504;79;21119;-74
2021/03/28 06:16:12;;;;;;;95.75;40.33;;;;;;;6.08;66.66;100264.09;1753979;81;21068;-74
2021/03/28 06:19:01;;;;;;;90.00;40.58;;;;;;;6.08;66.66;100264.09;1770566;81;21359;-74
2021/03/28 06:22:07;;;;;;;77.90;34.67;;;;;;;6.46;64.46;100256.78;1770560;81;21102;-74
2021/03/28 06:24:57;;;;;;;72.03;34.45;;;;;;;6.66;64.25;100264.70;1770575;81;21072;-74
2021/03/28 06:27:56;;;;;;;69.07;31.93;;;;;;;6.66;64.25;100264.70;1770153;81;21040;-76
2021/03/28 06:30:53;;;;;;;62.88;30.77;;;;;;;6.83;63.33;100257.07;1760208;81;21156;-78
2021/03/28 06:33:55;;;;;;;71.67;32.45;;;;;;;7.03;60.91;100262.48;1759413;80;22709;-76
2021/03/28 06:37:13;;;;;;;61.10;28.52;;;;;;;7.15;60.30;100257.56;1759220;81;20993;-73
2021/03/28 06:40:08;;;;;;;61.10;29.65;;;;;;;7.32;59.51;100250.97;1759323;81;21136;-73
2021/03/28 06:42:59;;;;;;;60.28;29.42;;;;;;;7.47;58.18;100259.12;1759468;81;21140;-73
2021/03/28 06:45:55;;;;;;;65.10;29.00;;;;;;;7.57;58.40;100250.32;1759303;81;20965;-74
2021/03/28 06:48:46;;;;;;;58.35;27.07;;;;;;;7.74;58.08;100251.91;1759263;81;21676;-72
2021/03/28 06:51:49;;;;;;;53.05;25.40;;;;;;;7.90;57.69;100252.92;1722675;81;21017;-74
2021/03/28 06:54:55;;;;;;;56.30;27.62;;;;;;;8.07;56.54;100254.48;1758383;81;21064;-75
2021/03/28 06:57:46;;;;;;;57.13;28.00;;;;;;;8.19;55.71;100248.91;1733519;79;21631;-74
2021/03/28 07:00:34;;;;;;;62.62;29.42;;;;;;;8.28;55.40;100251.88;1796973;79;20978;-74
2021/03/28 07:03:38;;;;;;;63.90;30.02;;;;;;;8.39;56.47;100259.49;1797146;79;21817;-71
2021/03/28 07:07:00;;;;;;;59.80;30.72;;;;;;;8.55;55.71;100258.29;1783674;79;21128;-73
2021/03/28 07:09:36;;;;;;;62.23;28.75;;;;;;;8.62;55.95;100254.68;1797275;79;20954;-72
2021/03/28 07:12:45;;;;;;;56.35;28.42;;;;;;;8.75;56.14;100258.66;1797251;79;21584;-72
2021/03/28 07:15:36;;;;;;;56.73;25.97;;;;;;;8.91;56.50;100253.32;1797304;79;21191;-72
2021/03/28 07:18:31;;;;;;;53.02;26.97;;;;;;;9.10;54.45;100250.13;1797193;79;21863;-73
2021/03/28 07:21:50;;;;;;;47.85;25.15;;;;;;;9.20;54.43;100248.66;1797255;79;20974;-73
2021/03/28 07:24:35;;;;;;;46.58;22.67;;;;;;;9.35;54.90;100239.44;1797277;79;21107;-73
2021/03/28 07:27:33;;;;;;;45.85;22.25;;;;;;;9.67;51.97;100244.28;1797182;79;21179;-72
2021/03/28 07:31:00;;;;;;;46.23;23.52;;;;;;;10.06;50.98;100237.17;1775125;79;21163;-71
2021/03/28 07:33:57;;;;;;;43.08;21.77;;;;;;;10.53;49.95;100242.26;1761961;81;21182;-71
2021/03/28 07:37:01;;;;;;;52.88;24.63;;;;;;;11.04;47.15;100234.52;1738656;81;21017;-73
2021/03/28 07:40:07;;;;;;;42.53;22.50;;;;;;;11.35;46.67;100241.09;1736909;81;25287;-71
2021/03/28 07:42:56;;;;;;;41.02;21.00;;;;;;;11.55;45.36;100236.55;1761850;81;21159;-73
2021/03/28 07:45:52;;;;;;;46.28;20.97;;;;;;;11.66;44.96;100240.47;1752561;80;21151;-74
2021/03/28 07:48:57;;;;;;;37.73;20.55;;;;;;;11.80;45.24;100233.06;1737453;80;21675;-72
2021/03/28 07:51:44;;;;;;;39.00;21.10;;;;;;;12.06;43.47;100229.20;1739678;81;21195;-71
2021/03/28 07:54:48;;;;;;;49.58;23.35;;;;;;;12.24;43.91;100235.10;1757331;81;21199;-73
2021/03/28 07:57:43;;;;;;;38.42;20.02;;;;;;;12.40;43.91;100223.99;1763634;81;21568;-75
2021/03/28 08:00:32;;;;;;;41.10;21.85;;;;;;;12.67;43.21;100226.39;1763362;81;21183;-73
2021/03/28 08:03:21;;;;;;;38.55;21.42;;;;;;;12.94;43.45;100219.34;1716025;81;21186;-70
2021/03/28 08:06:25;;;;;;;38.90;21.25;;;;;;;13.17;42.25;100219.58;1763400;80;20954;-69
2021/03/28 08:09:21;;;;;;;41.23;22.67;;;;;;;13.26;42.50;100218.81;1763819;81;21009;-72
2021/03/28 08:12:21;;;;;;;36.20;21.00;;;;;;;13.42;42.03;100212.53;1763582;81;21096;-70
2021/03/28 08:15:33;;;;;;;38.42;20.45;;;;;;;13.74;40.81;100209.16;1762957;81;21108;-75
2021/03/28 08:18:34;;;;;;;35.98;19.45;;;;;;;13.91;40.75;100213.31;1763215;80;22092;-73
2021/03/28 08:21:36;;;;;;;35.05;19.57;;;;;;;14.04;38.76;100220.64;1729787;81;21604;-75
2021/03/28 08:24:51;;;;;;;38.20;19.52;;;;;;;14.02;39.53;100209.11;1743670;80;21143;-81
2021/03/28 08:28:01;;;;;;;39.15;19.82;;;;;;;14.15;38.36;100209.53;1727070;83;21139;-74
2021/03/28 08:31:08;;;;;;;30.82;17.15;;;;;;;14.44;39.15;100208.91;1746168;81;21135;-75
2021/03/28 08:34:25;;;;;;;46.73;20.55;;;;;;;14.85;36.12;100200.66;1782763;79;21604;-73
2021/03/28 08:37:27;;;;;;;30.77;17.92;;;;;;;14.79;36.49;100201.97;1807387;78;21470;-76
2021/03/28 08:40:15;;;;;;;31.52;17.98;;;;;;;14.80;36.19;100203.59;1808073;79;20992;-74
2021/03/28 08:43:06;;;;;;;34.40;17.27;;;;;;;15.00;36.50;100201.52;1807131;79;21154;-72
2021/03/28 08:46:31;;;;;;;35.00;16.32;;;;;;;15.25;35.19;100194.83;1808230;79;21134;-73
2021/03/28 08:49:07;;;;;;;39.10;18.55;;;;;;;15.25;35.15;100192.87;1807790;78;20940;-74
2021/03/28 08:52:14;;;;;;;39.42;19.57;;;;;;;15.34;36.06;100197.00;1807973;79;21569;-73
2021/03/28 08:55:11;;;;;;;31.35;17.37;;;;;;;15.50;34.92;100199.45;1807956;79;20940;-74
2021/03/28 08:57:44;;;;;;;37.85;19.87;;;;;;;15.65;35.34;100185.05;1804507;78;21068;-72
2021/03/28 09:00:44;;;;;;;42.65;18.05;;;;;;;15.72;34.06;100195.59;1808022;79;20912;-72
2021/03/28 09:03:51;;;;;;;30.85;16.85;;;;;;;15.66;35.13;100185.86;1807631;79;21771;-72
2021/03/28 09:06:33;;;;;;;36.42;20.72;;;;;;;15.83;34.26;100187.96;1807950;79;20963;-72
2021/03/28 09:09:25;;;;;;;32.58;14.80;;;;;;;15.93;34.51;100190.10;1807345;78;21510;-72
2021/03/28 09:12:23;;;;;;;28.15;14.35;;;;;;;15.92;33.82;100191.25;1806245;79;21023;-72
2021/03/28 09:15:42;;;;;;;27.05;14.80;;;;;;;15.89;33.45;100191.34;1805606;78;20916;-71
2021/03/28 09:18:37;;;;;;;25.40;14.63;;;;;;;16.01;33.36;100185.08;1806200;79;21783;-72
2021/03/28 09:22:04;;;;;;;24.47;14.33;;;;;;;16.19;33.16;100190.70;1804548;79;21066;-72
2021/03/28 09:24:37;;;;;;;31.33;16.02;;;;;;;16.38;32.20;100198.55;1806933;78;20956;-71
2021/03/28 09:27:22;;;;;;;25.27;15.48;;;;;;;16.38;32.53;100184.12;1805485;79;21011;-73
2021/03/28 09:30:17;;;;;;;36.85;14.53;;;;;;;16.39;32.31;100191.86;1806066;79;21079;-71
2021/03/28 09:33:18;;;;;;;28.90;14.83;;;;;;;16.45;33.21;100189.11;1806180;79;22275;-71
2021/03/28 09:36:18;;;;;;;27.20;15.28;;;;;;;16.53;32.99;100191.00;1806132;78;21027;-71
2021/03/28 09:39:19;;;;;;;28.27;14.75;;;;;;;16.57;32.18;100192.52;1806726;78;21124;-71
2021/03/28 09:42:13;;;;;;;21.23;13.58;;;;;;;16.50;31.92;100184.75;1807337;79;21099;-71
2021/03/28 09:45:20;;;;;;;23.55;14.83;;;;;;;16.49;31.46;100180.36;1807563;79;21050;-72
2021/03/28 09:48:14;;;;;;;27.27;14.03;;;;;;;16.43;32.33;100174.21;1806484;78;22014;-72
2021/03/28 09:51:05;;;;;;;23.85;14.18;;;;;;;16.53;31.43;100181.30;1806162;78;21085;-72
2021/03/28 09:54:28;;;;;;;35.68;17.82;;;;;;;16.33;32.33;100162.16;1806269;79;21015;-73
2021/03/28 09:57:35;;;;;;;33.15;16.90;;;;;;;16.39;32.70;100172.45;1806119;79;21547;-72
2021/03/28 10:00:23;;;;;;;42.40;22.93;;;;;;;16.66;32.61;100167.76;1806350;79;21464;-72
2021/03/28 10:03:24;;;;;;;43.55;21.30;;;;;;;17.04;30.96;100163.91;1806250;79;21327;-72
2021/03/28 10:06:02;;;;;;;35.17;18.02;;;;;;;17.02;31.28;100155.12;1806192;79;20961;-72
2021/03/28 10:08:36;;;;;;;58.87;28.57;;;;;;;16.92;31.81;100159.14;1806200;79;20933;-71
2021/03/28 10:11:14;;;;;;;34.45;17.77;;;;;;;17.02;31.82;100155.92;1806174;78;21032;-72
2021/03/28 10:14:12;;;;;;;25.75;15.95;;;;;;;16.96;30.80;100150.37;1800698;79;21008;-71
2021/03/28 10:16:59;;;;;;;31.55;16.23;;;;;;;16.83;31.88;100157.84;1806247;79;21800;-71
2021/03/28 10:19:41;;;;;;;27.95;15.85;;;;;;;16.82;31.08;100149.30;1806145;79;20976;-72
2021/03/28 10:22:59;;;;;;;33.28;16.23;;;;;;;16.85;31.55;100145.03;1806275;79;20930;-71
2021/03/28 10:25:35;;;;;;;31.00;17.42;;;;;;;16.96;31.25;100139.28;1806250;79;21577;-72
2021/03/28 10:28:52;;;;;;;27.13;15.25;;;;;;;16.82;31.44;100133.23;1806120;79;20980;-72
2021/03/28 10:31:27;;;;;;;27.87;14.75;;;;;;;16.65;31.58;100143.16;1800396;77;21885;-74
2021/03/28 10:34:29;;;;;;;26.45;14.47;;;;;;;16.69;31.61;100130.23;1798033;79;21129;-73
2021/03/28 10:37:20;;;;;;;29.45;15.98;;;;;;;16.65;31.27;100123.75;1798385;79;20927;-73
2021/03/28 10:40:15;;;;;;;29.27;16.37;;;;;;;16.59;32.19;100125.08;1798234;79;20885;-73
2021/03/28 10:43:10;;;;;;;32.25;16.27;;;;;;;16.70;32.25;100124.34;1796039;78;21944;-73
2021/03/28 10:46:26;;;;;;;35.58;18.27;;;;;;;16.83;31.66;100111.28;1798266;79;21751;-73
2021/03/28 10:49:11;;;;;;;36.05;16.05;;;;;;;16.90;31.75;100115.69;1787600;78;21169;-73
2021/03/28 10:51:57;;;;;;;28.10;15.30;;;;;;;16.90;32.20;100112.92;1798272;79;20928;-73
2021/03/28 10:55:13;;;;;;;26.33;15.35;;;;;;;16.86;31.89;100113.95;1798078;79;21586;-73
2021/03/28 10:58:15;;;;;;;25.27;14.63;;;;;;;16.86;31.76;100109.79;1798613;79;21089;-77
2021/03/28 11:01:12;;;;;;;28.98;15.10;;;;;;;16.97;31.95;100103.45;1798333;78;21023;-73
2021/03/28 11:04:21;;;;;;;23.62;14.87;;;;;;;17.16;31.13;100100.94;1798185;79;21106;-72
2021/03/28 11:06:56;;;;;;;29.60;14.38;;;;;;;17.22;32.10;100107.64;1797311;79;21134;-80
2021/03/28 11:13:45;;;;;;;25.55;14.15;;;;;;;17.08;31.01;100104.63;1796320;78;21506;-74
2021/03/28 11:16:37;;;;;;;26.35;14.85;;;;;;;17.09;31.95;100093.77;1799856;79;21042;-75
2021/03/28 11:19:51;;;;;;;27.37;14.78;;;;;;;17.46;31.44;100090.38;1799911;79;21570;-77
2021/03/28 11:23:02;;;;;;;26.68;13.83;;;;;;;17.74;30.79;100086.32;1750326;82;20976;-78
2021/03/28 11:25:31;;;;;;;23.00;14.35;;;;;;;17.77;30.85;100091.17;1750833;80;21087;-75
2021/03/28 11:28:16;;;;;;;26.45;15.63;;;;;;;17.70;31.27;100082.62;1784047;79;21073;-77
2021/03/28 11:30:54;;;;;;;29.77;18.05;;;;;;;17.78;30.78;100085.84;1802521;78;21600;-80
2021/03/28 11:33:35;;;;;;;31.07;17.25;;;;;;;17.85;30.47;100079.70;1779117;79;20932;-75
2021/03/28 11:36:09;;;;;;;29.60;18.23;;;;;;;17.76;31.40;100078.45;1807970;78;21087;-76
2021/03/28 11:38:45;;;;;;;48.20;25.20;;;;;;;17.80;30.14;100077.97;1808305;78;21593;-82
2021/03/28 11:41:18;;;;;;;46.37;25.65;;;;;;;17.82;30.64;100081.79;1757874;79;21146;-80
2021/03/28 11:43:49;;;;;;;31.42;15.38;;;;;;;17.90;30.14;100084.20;1783787;78;20988;-79
2021/03/28 11:46:32;;;;;;;23.20;15.48;;;;;;;17.90;31.10;100084.20;1806358;79;21550;-78
2021/03/28 11:49:05;;;;;;;23.35;15.78;;;;;;;17.64;30.67;100077.63;1822933;77;21563;-81
2021/03/28 11:51:42;;;;;;;28.05;15.32;;;;;;;17.45;31.31;100076.84;1813394;78;21059;-79
2021/03/28 11:54:20;;;;;;;27.02;15.38;;;;;;;17.48;31.28;100081.13;1823721;78;21028;-78
2021/03/28 11:56:55;;;;;;;25.55;15.32;;;;;;;17.49;32.46;100077.19;1829827;78;21722;-80
2021/03/28 11:59:49;;;;;;;22.70;14.10;;;;;;;17.66;31.30;100068.41;1829780;78;21467;-82
2021/03/28 12:02:26;;;;;;;27.82;15.48;;;;;;;17.86;30.67;100066.04;1811758;78;21059;-82
2021/03/28 12:05:10;;;;;;;25.20;15.15;;;;;;;18.08;30.92;100066.86;1805970;79;20932;-82
2021/03/28 12:07:43;;;;;;;23.77;15.18;;;;;;;18.30;30.65;100068.28;1807351;79;21134;-78
2021/03/28 12:10:34;;;;;;;29.27;17.52;;;;;;;18.47;30.32;100061.02;1807387;79;22214;-79
2021/03/28 12:13:30;;;;;;;27.80;18.27;;;;;;;18.53;29.98;100069.06;1779202;79;21114;-79
2021/03/28 12:16:01;;;;;;;41.02;22.13;;;;;;;18.52;30.56;100061.88;1807270;78;21169;-83
2021/03/28 12:18:37;;;;;;;38.28;20.65;;;;;;;18.41;30.10;100055.48;1806659;78;21000;-82
2021/03/28 12:21:15;;;;;;;33.35;20.15;;;;;;;18.25;30.79;100056.61;1773439;80;21205;-78
2021/03/28 12:26:41;;;;;;;40.65;22.95;;;;;;;17.66;31.17;100047.00;1889418;76;22743;-81
2021/03/28 12:29:24;;;;;;;33.18;17.98;;;;;;;17.49;31.95;100043.07;1860442;77;20991;-78
2021/03/28 12:31:52;;;;;;;30.55;16.12;;;;;;;17.57;31.78;100038.55;1860692;77;21352;-80
2021/03/28 12:34:32;;;;;;;28.20;17.95;;;;;;;17.60;31.64;100035.88;1860270;77;21011;-81
2021/03/28 12:37:12;;;;;;;31.52;18.40;;;;;;;17.50;31.30;100038.56;1860339;77;21565;-80
2021/03/28 12:39:47;;;;;;;37.20;20.50;;;;;;;17.12;32.06;100034.00;1860328;77;21541;-77
2021/03/28 12:42:42;;;;;;;27.32;18.02;;;;;;;16.79;32.91;100033.53;1860256;77;21009;-80
2021/03/28 12:45:16;;;;;;;35.92;20.17;;;;;;;16.53;32.69;100033.61;1860403;77;22610;-79
2021/03/28 12:48:00;;;;;;;32.08;18.45;;;;;;;16.12;33.20;100032.02;1860260;77;21584;-77
2021/03/28 12:50:35;;;;;;;33.75;19.05;;;;;;;15.75;34.05;100037.97;1830741;77;20998;-78
2021/03/28 12:53:18;;;;;;;35.88;18.95;;;;;;;15.43;34.71;100039.50;1826482;78;21707;-78
2021/03/28 12:55:53;;;;;;;31.77;18.75;;;;;;;15.22;35.54;100043.38;1798488;78;21136;-79
2021/03/28 12:58:42;;;;;;;29.07;17.65;;;;;;;15.09;36.05;100032.80;1826553;78;21077;-80
2021/03/28 13:01:31;;;;;;;37.10;20.10;;;;;;;15.05;35.85;100031.27;1826561;78;21073;-76
2021/03/28 13:04:17;;;;;;;37.73;20.10;;;;;;;15.01;36.01;100028.97;1826463;78;21625;-77
2021/03/28 13:06:48;;;;;;;51.80;26.97;;;;;;;14.97;36.12;100023.86;1826290;78;21223;-77
2021/03/28 13:09:23;;;;;;;35.75;18.60;;;;;;;14.93;36.23;100025.67;1827044;78;21568;-76
2021/03/28 13:11:56;;;;;;;64.03;31.62;;;;;;;14.80;36.07;100021.99;1825330;78;20892;-76
2021/03/28 13:14:44;;;;;;;63.70;29.92;;;;;;;14.70;36.78;100022.36;1827333;78;20888;-76